Time;durP1;ratioP1;P1;durP2;ratioP2;P2;SDS_P1;SDS_P2;PMS_P1;PMS_P2;Temp;Humidity;BMP_temperature;BMP_pressure;BME280_temperature;BME280_humidity;BME280_pressure;Samples;Min_cycle;Max_cycle;Signal;HPM_P1;HPM_P2
2024/04/05 00:00:46;;;;;;;4.28;1.23;;;14.00;99.90;;;;;;4952333;28;20052;-59
2024/04/05 00:03:11;;;;;;;4.85;1.38;;;13.90;99.90;;;;;;4956666;28;20165;-59
2024/04/05 00:05:37;;;;;;;5.45;1.45;;;13.80;99.90;;;;;;4949837;28;20046;-57
2024/04/05 00:08:03;;;;;;;5.13;1.10;;;13.70;99.90;;;;;;4950990;28;20125;-59
2024/04/05 00:10:29;;;;;;;3.00;1.00;;;13.60;99.90;;;;;;4955052;28;20563;-59
2024/04/05 00:12:57;;;;;;;2.35;1.10;;;13.60;99.90;;;;;;4952253;28;20051;-58
2024/04/05 00:15:22;;;;;;;4.65;1.27;;;13.50;99.90;;;;;;4957498;28;20062;-57
2024/04/05 00:17:48;;;;;;;4.68;1.15;;;13.60;99.90;;;;;;4953308;28;20129;-59
2024/04/05 00:20:14;;;;;;;4.05;1.05;;;13.60;99.90;;;;;;4955128;28;20494;-58
2024/04/05 00:22:40;;;;;;;5.40;1.63;;;13.60;99.90;;;;;;4955265;28;20656;-59
2024/04/05 00:25:06;;;;;;;4.18;1.75;;;13.60;99.90;;;;;;4961322;28;20050;-57
2024/04/05 00:27:32;;;;;;;5.88;1.23;;;13.70;99.90;;;;;;4957566;28;20057;-59
2024/04/05 00:30:00;;;;;;;4.82;1.15;;;13.70;99.90;;;;;;4948642;28;20055;-59
2024/04/05 00:32:26;;;;;;;4.25;1.10;;;13.70;99.90;;;;;;4953749;28;20054;-58
2024/04/05 00:34:52;;;;;;;4.50;1.27;;;13.70;99.90;;;;;;4954670;28;20050;-58
2024/04/05 00:37:18;;;;;;;2.80;1.20;;;13.80;99.90;;;;;;4977477;28;20089;-59
2024/04/05 00:39:44;;;;;;;4.55;1.05;;;13.80;99.90;;;;;;4959216;28;20054;-56
2024/04/05 00:42:09;;;;;;;4.97;1.23;;;13.80;99.90;;;;;;4944203;28;20058;-59
2024/04/05 00:44:35;;;;;;;6.65;1.60;;;13.80;99.90;;;;;;4946552;28;20126;-58
2024/04/05 00:47:01;;;;;;;3.45;1.08;;;13.80;99.90;;;;;;4954175;28;20043;-59
2024/04/05 00:49:27;;;;;;;4.03;1.00;;;13.80;99.90;;;;;;4962689;28;20055;-59
2024/04/05 00:51:55;;;;;;;5.30;1.38;;;13.80;99.90;;;;;;4952843;28;20050;-59
2024/04/05 00:54:22;;;;;;;1.70;0.90;;;13.80;99.90;;;;;;4957227;28;20061;-57
2024/04/05 00:56:48;;;;;;;3.28;1.30;;;13.80;99.90;;;;;;4943578;28;20471;-59
2024/04/05 00:59:15;;;;;;;1.42;0.90;;;13.90;99.90;;;;;;4957236;28;20090;-58
2024/04/05 01:01:42;;;;;;;4.75;1.60;;;13.90;99.90;;;;;;4946245;28;20054;-60
2024/04/05 01:04:09;;;;;;;5.22;1.80;;;13.90;99.90;;;;;;4955344;28;20059;-59
2024/04/05 01:06:36;;;;;;;3.42;1.50;;;13.90;99.90;;;;;;4958218;28;20046;-59
2024/04/05 01:09:04;;;;;;;4.10;1.42;;;13.90;99.90;;;;;;4956869;28;20050;-59
2024/04/05 01:11:30;;;;;;;2.92;1.27;;;14.00;99.90;;;;;;4956535;28;20400;-59
2024/04/05 01:13:56;;;;;;;2.08;1.10;;;14.00;99.90;;;;;;4951474;28;20051;-59
2024/04/05 01:16:22;;;;;;;5.72;0.98;;;14.10;99.90;;;;;;4952235;28;20113;-59
2024/04/05 01:18:48;;;;;;;4.20;1.10;;;14.20;99.90;;;;;;4957683;28;20054;-59
2024/04/05 01:21:13;;;;;;;7.13;2.20;;;14.30;99.90;;;;;;4955943;28;20796;-61
2024/04/05 01:23:41;;;;;;;1.80;0.80;;;14.50;99.90;;;;;;4953308;28;20105;-60
2024/04/05 01:26:07;;;;;;;4.07;1.05;;;14.70;99.90;;;;;;4952566;28;20047;-59
2024/04/05 01:28:32;;;;;;;3.38;0.80;;;14.80;99.90;;;;;;4954088;28;20058;-61
2024/04/05 01:30:58;;;;;;;2.70;0.70;;;14.90;99.90;;;;;;4957894;28;20062;-61
2024/04/05 01:33:24;;;;;;;3.28;1.10;;;14.90;99.90;;;;;;4951234;28;20047;-60
2024/04/05 01:35:50;;;;;;;3.13;1.17;;;14.80;99.90;;;;;;4961654;28;20488;-61
2024/04/05 01:38:16;;;;;;;5.50;1.60;;;14.80;99.90;;;;;;4954463;28;20054;-60
2024/04/05 01:40:41;;;;;;;2.97;1.33;;;14.70;99.90;;;;;;4956226;28;20090;-61
2024/04/05 01:43:07;;;;;;;2.33;0.85;;;14.70;99.90;;;;;;4964313;28;20051;-60
2024/04/05 01:45:33;;;;;;;4.20;1.20;;;14.60;99.90;;;;;;4960269;28;20670;-60
2024/04/05 01:47:59;;;;;;;1.48;0.73;;;14.60;99.90;;;;;;4957884;28;20047;-60
2024/04/05 01:50:24;;;;;;;3.83;1.25;;;14.50;99.90;;;;;;4952999;28;20046;-60
2024/04/05 01:52:50;;;;;;;4.93;0.93;;;14.50;99.90;;;;;;4958687;28;20043;-61
2024/04/05 01:55:16;;;;;;;4.70;1.00;;;14.50;99.90;;;;;;4957465;28;20050;-61
2024/04/05 01:57:42;;;;;;;2.70;0.82;;;14.50;99.90;;;;;;4964387;28;20050;-60
2024/04/05 02:00:08;;;;;;;5.15;1.50;;;14.50;99.90;;;;;;4952960;28;20086;-61
2024/04/05 02:02:34;;;;;;;3.20;1.23;;;14.50;99.90;;;;;;4956196;28;20050;-60
2024/04/05 02:05:00;;;;;;;3.63;1.00;;;14.50;99.90;;;;;;4953324;28;20118;-60
2024/04/05 02:07:26;;;;;;;4.15;1.00;;;14.50;99.90;;;;;;4959057;28;20467;-60
2024/04/05 02:09:52;;;;;;;3.72;1.10;;;14.50;99.90;;;;;;4955243;28;20054;-60
2024/04/05 02:12:20;;;;;;;1.88;0.80;;;14.50;99.90;;;;;;4953300;28;20127;-64
2024/04/05 02:14:46;;;;;;;3.20;1.00;;;14.50;99.90;;;;;;4953271;28;20046;-60
2024/04/05 02:17:12;;;;;;;1.10;0.60;;;14.50;99.90;;;;;;4957676;28;20061;-60
2024/04/05 02:19:38;;;;;;;3.33;0.90;;;14.60;99.90;;;;;;4957635;28;20079;-61
2024/04/05 02:22:05;;;;;;;2.63;1.08;;;14.60;99.90;;;;;;4959708;28;20055;-60
2024/04/05 02:24:31;;;;;;;1.85;0.80;;;14.60;99.90;;;;;;4958335;28;20050;-60
2024/04/05 02:26:58;;;;;;;2.33;1.05;;;14.70;99.90;;;;;;4954478;28;20061;-59
2024/04/05 02:29:23;;;;;;;2.35;0.90;;;14.70;99.90;;;;;;4958626;28;20124;-59
2024/04/05 02:31:49;;;;;;;2.78;0.93;;;14.70;99.90;;;;;;4956568;28;20058;-60
2024/04/05 02:34:15;;;;;;;1.40;0.85;;;14.70;99.90;;;;;;4961744;28;21321;-59
2024/04/05 02:36:41;;;;;;;3.25;0.90;;;14.60;99.90;;;;;;4949070;28;20062;-58
2024/04/05 02:39:07;;;;;;;6.00;1.45;;;14.60;99.90;;;;;;4956126;28;20069;-60
2024/04/05 02:41:33;;;;;;;2.13;0.80;;;14.60;99.90;;;;;;4957401;28;20058;-60
2024/04/05 02:44:00;;;;;;;4.63;1.08;;;14.60;99.90;;;;;;4958883;28;20070;-60
2024/04/05 02:46:26;;;;;;;2.20;0.88;;;14.60;99.90;;;;;;4949616;28;20054;-60
2024/04/05 02:48:54;;;;;;;1.38;0.88;;;14.50;99.90;;;;;;4949686;28;20055;-59
2024/04/05 02:51:20;;;;;;;2.67;1.00;;;14.40;99.90;;;;;;4960367;28;20051;-55
2024/04/05 02:53:46;;;;;;;2.47;0.90;;;14.30;99.90;;;;;;4959635;28;20411;-60
2024/04/05 02:56:14;;;;;;;1.63;0.88;;;14.20;99.90;;;;;;4959135;28;20058;-60
2024/04/05 02:58:40;;;;;;;2.60;0.75;;;14.10;99.90;;;;;;4955509;28;20054;-59
2024/04/05 03:01:06;;;;;;;4.63;0.98;;;13.90;99.90;;;;;;4957474;28;20090;-56
2024/04/05 03:03:32;;;;;;;5.53;1.00;;;13.80;99.90;;;;;;4956549;28;20137;-60
2024/04/05 03:05:58;;;;;;;7.07;1.05;;;13.60;99.90;;;;;;4953043;28;20039;-60
2024/04/05 03:08:24;;;;;;;3.10;1.10;;;13.50;99.90;;;;;;4956454;28;20082;-60
2024/04/05 03:10:49;;;;;;;3.20;0.98;;;13.40;99.90;;;;;;4953764;28;20054;-60
2024/04/05 03:13:15;;;;;;;2.03;0.88;;;13.30;99.90;;;;;;4954757;28;20061;-60
2024/04/05 03:15:41;;;;;;;1.63;0.75;;;13.20;99.90;;;;;;4957221;28;20733;-60
2024/04/05 03:18:07;;;;;;;6.78;1.90;;;13.10;99.90;;;;;;4955724;28;20055;-60
2024/04/05 03:20:32;;;;;;;4.20;1.20;;;13.00;99.90;;;;;;4957133;28;20097;-60
2024/04/05 03:22:58;;;;;;;3.63;1.67;;;12.90;99.90;;;;;;4953195;28;20102;-60
2024/04/05 03:25:24;;;;;;;5.80;1.30;;;12.80;99.90;;;;;;4952146;28;20422;-60
2024/04/05 03:27:50;;;;;;;2.65;1.00;;;12.80;99.90;;;;;;4957727;28;20051;-59
2024/04/05 03:30:16;;;;;;;1.35;0.82;;;12.70;99.90;;;;;;4959300;28;20092;-60
2024/04/05 03:32:42;;;;;;;5.85;2.00;;;12.70;99.90;;;;;;4961720;28;20419;-60
2024/04/05 03:35:09;;;;;;;4.05;1.30;;;12.60;99.90;;;;;;4957180;28;20054;-60
2024/04/05 03:37:36;;;;;;;4.25;1.00;;;12.60;99.90;;;;;;4971054;28;20522;-58
2024/04/05 03:40:03;;;;;;;3.00;1.20;;;12.60;99.90;;;;;;4957111;28;20051;-60
2024/04/05 03:42:29;;;;;;;4.20;0.93;;;12.50;99.90;;;;;;4959646;28;20058;-60
2024/04/05 03:44:54;;;;;;;9.13;2.33;;;12.50;99.90;;;;;;4939612;28;20148;-59
2024/04/05 03:47:20;;;;;;;6.00;1.20;;;12.40;99.90;;;;;;4948687;28;20042;-58
2024/04/05 03:49:46;;;;;;;11.32;1.10;;;12.40;99.90;;;;;;4951724;28;20065;-59
2024/04/05 03:52:12;;;;;;;7.22;0.95;;;12.30;99.90;;;;;;4960413;28;20055;-58
2024/04/05 03:54:38;;;;;;;5.15;1.05;;;12.40;99.90;;;;;;4954480;28;20042;-56
2024/04/05 03:57:04;;;;;;;2.97;1.02;;;12.30;99.90;;;;;;4948584;28;20058;-56
2024/04/05 03:59:30;;;;;;;5.50;1.85;;;12.20;99.90;;;;;;4952161;28;20061;-59
2024/04/05 04:01:56;;;;;;;4.35;1.02;;;12.20;99.90;;;;;;4962219;28;20046;-59
2024/04/05 04:04:22;;;;;;;1.38;0.90;;;12.20;99.90;;;;;;4945336;28;20046;-60
2024/04/05 04:06:48;;;;;;;1.90;1.25;;;12.10;99.90;;;;;;4947720;28;20447;-60
2024/04/05 04:09:17;;;;;;;3.10;1.00;;;12.10;99.90;;;;;;4961043;28;20055;-61
2024/04/05 04:11:43;;;;;;;2.97;0.88;;;12.10;99.90;;;;;;4954997;28;20047;-59
2024/04/05 04:14:09;;;;;;;2.28;1.00;;;12.00;99.90;;;;;;4959125;28;20064;-60
2024/04/05 04:16:35;;;;;;;3.92;1.20;;;11.90;99.90;;;;;;4956602;28;20721;-58
2024/04/05 04:19:01;;;;;;;2.03;1.15;;;11.90;99.90;;;;;;4951411;28;20051;-60
2024/04/05 04:21:27;;;;;;;1.38;1.02;;;11.80;99.90;;;;;;4950552;28;20141;-60
2024/04/05 04:23:53;;;;;;;4.20;1.38;;;11.80;99.90;;;;;;4957167;28;20772;-55
2024/04/05 04:26:22;;;;;;;2.33;1.10;;;11.80;99.90;;;;;;4957241;28;20399;-60
2024/04/05 04:28:49;;;;;;;2.25;1.15;;;11.90;99.90;;;;;;4960309;28;20419;-60
2024/04/05 04:31:24;;;;;;;4.70;1.25;;;11.90;99.90;;;;;;4955852;28;20520;-58
2024/04/05 04:33:51;;;;;;;6.65;1.40;;;12.00;99.90;;;;;;4951495;28;20408;-60
2024/04/05 04:36:21;;;;;;;5.05;1.20;;;12.00;99.90;;;;;;4954525;28;20403;-60
2024/04/05 04:38:51;;;;;;;5.30;1.20;;;12.00;99.90;;;;;;4962219;28;20062;-59
2024/04/05 04:41:18;;;;;;;1.65;0.98;;;12.00;99.90;;;;;;4969764;28;20530;-60
2024/04/05 04:43:44;;;;;;;4.47;1.20;;;12.00;99.90;;;;;;4962914;28;20503;-58
2024/04/05 04:46:12;;;;;;;3.13;1.00;;;12.00;99.90;;;;;;4958995;28;20419;-57
2024/04/05 04:48:38;;;;;;;2.83;0.90;;;12.00;99.90;;;;;;4961991;28;20058;-59
2024/04/05 04:51:05;;;;;;;6.55;1.42;;;11.90;99.90;;;;;;4964687;28;20054;-60
2024/04/05 04:53:30;;;;;;;4.25;1.27;;;11.90;99.90;;;;;;4959936;28;20407;-60
2024/04/05 04:55:56;;;;;;;6.13;1.45;;;11.80;99.90;;;;;;4947453;28;20063;-58
2024/04/05 04:58:28;;;;;;;3.30;1.20;;;11.70;99.90;;;;;;4964522;28;20061;-59
2024/04/05 05:00:55;;;;;;;3.53;1.10;;;11.70;99.90;;;;;;4957259;28;20058;-60
2024/04/05 05:03:22;;;;;;;6.13;1.27;;;11.60;99.90;;;;;;4953581;28;20062;-60
2024/04/05 05:05:48;;;;;;;4.75;1.20;;;11.50;99.90;;;;;;4955661;28;20051;-60
2024/04/05 05:08:14;;;;;;;5.35;1.55;;;11.40;99.90;;;;;;4952658;28;20105;-60
2024/04/05 05:10:40;;;;;;;5.30;1.67;;;11.40;99.90;;;;;;4960575;28;20054;-59
2024/04/05 05:13:06;;;;;;;4.35;1.48;;;11.30;99.90;;;;;;4957940;28;20062;-61
2024/04/05 05:15:32;;;;;;;2.13;1.30;;;11.30;99.90;;;;;;4960396;28;20058;-60
2024/04/05 05:17:58;;;;;;;3.92;2.00;;;11.20;99.90;;;;;;4953090;28;20051;-59
2024/04/05 05:20:26;;;;;;;4.80;1.40;;;11.20;99.90;;;;;;4957010;28;20054;-58
2024/04/05 05:22:53;;;;;;;3.40;1.48;;;11.20;99.90;;;;;;4959192;28;20055;-59
2024/04/05 05:25:19;;;;;;;6.93;2.35;;;11.20;99.90;;;;;;4966966;28;20061;-60
2024/04/05 05:27:45;;;;;;;5.70;2.15;;;11.10;99.90;;;;;;4959067;28;20423;-56
2024/04/05 05:30:11;;;;;;;5.10;2.20;;;11.20;99.90;;;;;;4958923;28;20050;-60
2024/04/05 05:32:37;;;;;;;4.53;2.08;;;11.20;99.90;;;;;;4951543;28;20042;-59
2024/04/05 05:35:05;;;;;;;10.18;2.83;;;11.20;99.90;;;;;;4954047;28;20114;-57
2024/04/05 05:37:31;;;;;;;5.07;2.47;;;11.30;99.90;;;;;;4958412;28;20061;-59
2024/04/05 05:39:57;;;;;;;3.35;1.90;;;11.30;99.90;;;;;;4956942;28;20050;-60
2024/04/05 05:42:23;;;;;;;6.32;2.15;;;11.30;99.90;;;;;;4951899;28;20507;-54
2024/04/05 05:44:49;;;;;;;7.22;2.03;;;11.40;99.90;;;;;;4957884;28;20043;-57
2024/04/05 05:47:16;;;;;;;7.60;2.35;;;11.60;99.90;;;;;;4959132;28;20113;-58
2024/04/05 05:49:42;;;;;;;4.40;1.73;;;11.70;99.90;;;;;;4945615;28;20058;-58
2024/04/05 05:52:09;;;;;;;8.88;1.80;;;11.80;99.90;;;;;;4948129;28;20042;-59
2024/04/05 05:54:35;;;;;;;3.97;2.20;;;11.90;99.90;;;;;;4957661;28;20054;-59
2024/04/05 05:57:02;;;;;;;4.18;1.85;;;12.10;99.90;;;;;;4961756;28;20058;-59
2024/04/05 05:59:30;;;;;;;6.93;2.05;;;12.30;99.90;;;;;;4947309;28;20047;-60
2024/04/05 06:01:56;;;;;;;10.25;3.05;;;12.50;99.90;;;;;;4957424;28;20046;-57
2024/04/05 06:04:21;;;;;;;4.68;1.70;;;12.60;99.90;;;;;;4963915;28;20472;-57
2024/04/05 06:06:47;;;;;;;5.32;1.80;;;12.70;99.90;;;;;;4955272;28;20047;-60
2024/04/05 06:09:14;;;;;;;8.70;2.22;;;12.90;99.90;;;;;;4958171;28;20057;-60
2024/04/05 06:11:40;;;;;;;8.48;2.10;;;13.00;99.90;;;;;;4958643;28;20050;-61
2024/04/05 06:14:06;;;;;;;10.05;6.40;;;13.20;99.90;;;;;;4954940;28;20129;-62
2024/04/05 06:16:32;;;;;;;9.88;4.53;;;13.30;99.90;;;;;;4959171;28;20058;-61
2024/04/05 06:18:58;;;;;;;9.43;6.00;;;13.50;99.90;;;;;;4949923;28;20054;-62
2024/04/05 06:21:24;;;;;;;14.43;7.85;;;13.70;99.90;;;;;;4961598;28;20061;-61
2024/04/05 06:23:49;;;;;;;13.93;7.13;;;13.80;99.90;;;;;;4967904;28;20057;-62
2024/04/05 06:26:15;;;;;;;9.45;5.47;;;14.00;99.90;;;;;;4956811;28;20133;-61
2024/04/05 06:28:41;;;;;;;7.13;3.92;;;14.10;99.90;;;;;;4958180;28;20057;-60
2024/04/05 06:31:07;;;;;;;7.82;3.15;;;14.20;99.90;;;;;;4960194;28;20050;-60
2024/04/05 06:33:33;;;;;;;5.82;2.30;;;14.40;99.90;;;;;;4960059;28;20066;-62
2024/04/05 06:35:59;;;;;;;8.10;2.05;;;14.50;99.90;;;;;;4959627;28;20065;-62
2024/04/05 06:38:26;;;;;;;7.65;1.85;;;14.60;99.90;;;;;;4943674;28;20113;-62
2024/04/05 06:40:56;;;;;;;7.75;1.67;;;14.70;99.90;;;;;;4957089;28;20431;-62
2024/04/05 06:43:22;;;;;;;4.50;1.52;;;14.80;99.90;;;;;;4961042;28;20144;-61
2024/04/05 06:45:55;;;;;;;2.10;1.10;;;15.00;99.90;;;;;;4957662;28;20038;-62
2024/04/05 06:48:21;;;;;;;5.90;1.60;;;15.00;99.90;;;;;;4963352;28;20439;-59
2024/04/05 06:50:48;;;;;;;4.03;1.52;;;14.90;99.90;;;;;;4963422;28;20047;-61
2024/04/05 06:53:15;;;;;;;4.07;1.50;;;14.90;99.90;;;;;;4959026;28;20521;-62
2024/04/05 06:55:48;;;;;;;2.65;0.95;;;15.00;99.90;;;;;;4951322;28;20050;-60
2024/04/05 06:58:14;;;;;;;2.25;0.98;;;14.90;99.90;;;;;;4967088;28;20065;-62
2024/04/05 07:00:41;;;;;;;4.97;1.02;;;14.80;99.90;;;;;;4960030;28;20054;-60
2024/04/05 07:03:07;;;;;;;2.15;1.17;;;14.80;99.90;;;;;;4975341;28;20059;-59
2024/04/05 07:05:33;;;;;;;7.78;1.65;;;14.70;99.90;;;;;;4967123;28;20054;-59
2024/04/05 07:08:00;;;;;;;2.63;1.33;;;14.70;99.90;;;;;;4964874;28;20054;-60
2024/04/05 07:10:27;;;;;;;1.23;0.98;;;14.60;99.90;;;;;;4962078;28;20620;-60
2024/04/05 07:12:52;;;;;;;6.72;1.23;;;14.70;99.90;;;;;;4964314;28;20050;-61
2024/04/05 07:15:20;;;;;;;3.47;1.30;;;14.70;99.90;;;;;;4960665;28;20057;-61
2024/04/05 07:17:51;;;;;;;3.83;1.77;;;14.90;99.90;;;;;;4966605;28;20427;-60
2024/04/05 07:20:26;;;;;;;2.75;1.48;;;15.00;99.90;;;;;;4959263;28;20100;-58
2024/04/05 07:22:54;;;;;;;3.03;1.60;;;15.20;99.90;;;;;;4949778;28;20494;-61
2024/04/05 07:25:23;;;;;;;4.93;1.70;;;15.30;99.90;;;;;;4955004;28;20085;-60
2024/04/05 07:27:55;;;;;;;5.78;2.03;;;15.30;99.90;;;;;;4956181;28;20046;-56
2024/04/05 07:30:24;;;;;;;5.95;1.67;;;15.40;99.90;;;;;;4951120;28;20085;-60
2024/04/05 07:32:50;;;;;;;7.18;1.88;;;15.40;99.90;;;;;;4963753;28;20043;-59
2024/04/05 07:35:17;;;;;;;7.88;1.63;;;15.60;99.90;;;;;;4948830;28;20089;-54
2024/04/05 07:37:47;;;;;;;2.92;0.88;;;15.90;99.90;;;;;;4949598;28;20586;-54
2024/04/05 07:40:18;;;;;;;1.20;0.57;;;16.70;99.90;;;;;;4957937;28;20454;-60
2024/04/05 07:42:48;;;;;;;1.85;0.50;;;17.00;99.90;;;;;;4951660;28;20058;-61
2024/04/05 07:45:14;;;;;;;1.75;0.75;;;17.20;99.90;;;;;;4958725;28;20573;-62
2024/04/05 07:47:40;;;;;;;1.13;0.40;;;17.50;99.90;;;;;;4957185;28;20046;-61
2024/04/05 07:50:06;;;;;;;0.55;0.47;;;17.60;99.90;;;;;;4955397;28;20062;-61
2024/04/05 07:52:32;;;;;;;2.63;0.60;;;17.70;99.90;;;;;;4958402;28;20047;-60
2024/04/05 07:54:58;;;;;;;2.47;0.60;;;17.90;99.90;;;;;;4953954;28;20083;-60
2024/04/05 07:57:24;;;;;;;1.80;0.80;;;18.20;99.90;;;;;;4946227;28;20697;-61
2024/04/05 07:59:49;;;;;;;1.98;0.57;;;18.30;99.90;;;;;;4958839;28;20491;-61
2024/04/05 08:02:15;;;;;;;2.10;0.50;;;18.30;99.90;;;;;;4955303;28;20055;-62
2024/04/05 08:04:41;;;;;;;5.10;0.50;;;18.40;99.90;;;;;;4950105;28;20411;-61
2024/04/05 08:07:06;;;;;;;3.05;0.60;;;18.50;99.90;;;;;;4957298;28;20474;-62
2024/04/05 08:09:32;;;;;;;4.05;0.50;;;18.50;99.90;;;;;;4961798;28;20050;-63
2024/04/05 08:11:58;;;;;;;1.05;0.45;;;18.60;99.90;;;;;;4952470;28;20053;-62
2024/04/05 08:14:24;;;;;;;1.80;0.80;;;18.60;99.90;;;;;;4956078;28;20074;-62
2024/04/05 08:16:50;;;;;;;2.00;0.60;;;18.60;99.90;;;;;;4951705;28;20054;-63
2024/04/05 08:19:15;;;;;;;3.65;0.98;;;18.60;99.90;;;;;;4951067;28;20058;-62
2024/04/05 08:21:41;;;;;;;1.48;0.45;;;18.60;99.90;;;;;;4950525;28;20085;-62
2024/04/05 08:24:07;;;;;;;2.55;0.47;;;18.60;99.90;;;;;;4962080;28;20137;-62
2024/04/05 08:26:34;;;;;;;1.13;0.45;;;18.60;99.90;;;;;;4954359;28;20470;-62
2024/04/05 08:28:59;;;;;;;0.98;0.60;;;18.70;99.90;;;;;;4958818;28;20059;-63
2024/04/05 08:31:25;;;;;;;2.65;0.50;;;18.80;99.90;;;;;;4951477;28;20066;-62
2024/04/05 08:33:51;;;;;;;1.38;0.60;;;18.90;99.90;;;;;;4961474;28;20057;-63
2024/04/05 08:36:17;;;;;;;1.15;0.68;;;18.90;99.90;;;;;;4949570;28;20043;-62
2024/04/05 08:38:43;;;;;;;1.40;0.70;;;18.90;99.90;;;;;;4959030;28;20106;-62
2024/04/05 08:41:10;;;;;;;1.55;0.57;;;18.90;99.90;;;;;;4951035;28;20059;-61
2024/04/05 08:43:39;;;;;;;1.55;0.50;;;18.90;99.90;;;;;;4955817;28;20573;-61
2024/04/05 08:46:06;;;;;;;1.35;0.70;;;19.10;99.90;;;;;;4963218;28;20057;-61
2024/04/05 08:48:34;;;;;;;2.80;0.90;;;19.20;99.90;;;;;;4960007;28;20403;-62
2024/04/05 08:51:01;;;;;;;2.40;0.88;;;19.30;99.90;;;;;;4955843;28;20057;-61
2024/04/05 08:53:28;;;;;;;3.00;0.80;;;19.30;99.90;;;;;;4953874;28;20050;-62
2024/04/05 08:55:58;;;;;;;2.60;0.60;;;19.40;99.90;;;;;;4955619;28;20058;-62
2024/04/05 08:58:25;;;;;;;3.55;0.80;;;19.50;99.90;;;;;;4955555;28;20047;-62
2024/04/05 09:00:51;;;;;;;1.33;0.50;;;19.50;99.90;;;;;;4955624;28;20535;-61
2024/04/05 09:03:17;;;;;;;1.95;0.90;;;19.80;99.90;;;;;;4951226;28;20062;-62
2024/04/05 09:05:43;;;;;;;1.00;0.63;;;20.10;99.90;;;;;;4955930;28;20415;-62
2024/04/05 09:08:09;;;;;;;3.42;1.00;;;20.40;99.90;;;;;;4960702;28;20074;-61
2024/04/05 09:10:35;;;;;;;2.85;0.70;;;20.80;99.90;;;;;;4959723;28;20058;-61
2024/04/05 09:13:04;;;;;;;1.70;0.82;;;21.10;99.90;;;;;;4955796;28;20051;-62
2024/04/05 09:15:31;;;;;;;2.03;0.70;;;21.40;99.90;;;;;;4978633;28;20569;-61
2024/04/05 09:17:56;;;;;;;0.60;0.40;;;21.60;99.90;;;;;;4958910;28;20074;-62
2024/04/05 09:20:26;;;;;;;2.08;0.63;;;21.70;99.90;;;;;;4961178;28;20082;-62
2024/04/05 09:23:02;;;;;;;1.25;0.60;;;21.60;99.90;;;;;;4982837;28;20686;-61
2024/04/05 09:25:30;;;;;;;2.50;0.70;;;21.80;99.90;;;;;;4956127;28;20412;-62
2024/04/05 09:28:16;;;;;;;1.25;0.55;;;22.10;99.90;;;;;;4986279;28;20461;-61
2024/04/05 09:30:43;;;;;;;3.05;0.60;;;22.40;99.90;;;;;;4955028;28;20053;-62
2024/04/05 09:33:17;;;;;;;3.08;0.50;;;22.60;99.90;;;;;;4959862;28;20043;-61
2024/04/05 09:35:45;;;;;;;4.88;0.70;;;22.80;99.90;;;;;;4953647;28;20055;-63
2024/04/05 09:38:13;;;;;;;0.93;0.43;;;22.90;99.90;;;;;;4959456;28;20450;-63
2024/04/05 09:40:40;;;;;;;2.15;0.60;;;22.70;99.90;;;;;;4955430;28;20058;-63
2024/04/05 09:43:08;;;;;;;3.20;0.73;;;22.60;99.90;;;;;;4955322;28;20049;-62
2024/04/05 09:45:35;;;;;;;2.38;0.55;;;22.60;99.90;;;;;;4945308;28;20055;-62
2024/04/05 09:48:03;;;;;;;0.73;0.50;;;22.50;99.90;;;;;;4955645;28;20487;-62
2024/04/05 09:50:29;;;;;;;6.15;0.77;;;22.50;99.90;;;;;;4953161;28;20073;-63
2024/04/05 09:52:56;;;;;;;1.80;0.55;;;22.60;99.90;;;;;;4958356;28;20399;-63
2024/04/05 09:55:29;;;;;;;1.15;0.45;;;22.70;99.90;;;;;;4962765;28;20154;-62
2024/04/05 09:57:55;;;;;;;2.13;0.73;;;22.70;99.90;;;;;;4958255;28;20058;-62
2024/04/05 10:00:27;;;;;;;4.07;1.20;;;22.90;99.90;;;;;;4956988;28;20042;-63
2024/04/05 10:02:58;;;;;;;4.32;0.73;;;22.90;99.90;;;;;;4961591;28;20649;-63
2024/04/05 10:05:29;;;;;;;2.08;0.55;;;23.00;99.90;;;;;;4956764;28;20054;-63
2024/04/05 10:08:07;;;;;;;1.88;0.50;;;23.00;99.90;;;;;;4956904;28;20042;-63
2024/04/05 10:10:34;;;;;;;2.42;0.70;;;23.10;99.90;;;;;;4957176;28;20054;-59
2024/04/05 10:13:14;;;;;;;2.50;0.68;;;23.00;99.90;;;;;;4945813;28;20042;-59
2024/04/05 10:15:54;;;;;;;2.60;0.60;;;22.70;99.90;;;;;;4948125;28;20081;-59
2024/04/05 10:18:24;;;;;;;;;;;22.40;99.90;;;;;;4952852;28;20109;-59
2024/04/05 10:21:02;;;;;;;1.92;0.70;;;22.20;99.90;;;;;;4957118;28;19929;-60
2024/04/05 10:23:28;;;;;;;2.92;1.15;;;22.00;99.90;;;;;;4955142;28;20055;-60
2024/04/05 10:25:54;;;;;;;2.00;0.70;;;21.90;99.90;;;;;;4953409;28;20517;-59
2024/04/05 10:28:21;;;;;;;1.20;0.35;;;21.80;99.90;;;;;;4957869;28;20072;-58
2024/04/05 10:30:47;;;;;;;5.65;0.90;;;21.90;99.90;;;;;;4948848;28;20047;-59
2024/04/05 10:33:18;;;;;;;1.48;0.57;;;22.00;99.90;;;;;;4954293;28;20051;-60
2024/04/05 10:35:45;;;;;;;4.10;0.70;;;21.90;99.90;;;;;;4959718;28;20050;-62
2024/04/05 10:38:11;;;;;;;1.33;0.60;;;21.80;99.90;;;;;;4959120;28;20054;-62
2024/04/05 10:40:37;;;;;;;0.40;0.40;;;21.70;99.90;;;;;;4955002;28;20065;-62
2024/04/05 10:43:11;;;;;;;1.00;0.70;;;21.50;99.90;;;;;;4960182;28;20062;-62
2024/04/05 10:45:41;;;;;;;10.68;1.33;;;21.50;99.90;;;;;;4959258;28;20428;-62
2024/04/05 10:48:08;;;;;;;1.38;0.75;;;21.30;99.90;;;;;;4961613;28;20047;-61
2024/04/05 10:50:37;;;;;;;1.58;0.63;;;21.30;99.90;;;;;;4959659;28;20461;-62
2024/04/05 10:53:05;;;;;;;3.92;0.80;;;21.20;99.90;;;;;;4953437;28;20130;-62
2024/04/05 10:55:31;;;;;;;1.83;0.68;;;21.20;99.90;;;;;;4951654;28;20050;-61
2024/04/05 10:58:01;;;;;;;5.57;0.90;;;21.40;99.90;;;;;;4952265;28;20639;-61
2024/04/05 11:00:28;;;;;;;2.42;0.40;;;21.90;99.90;;;;;;4965670;28;20058;-62
2024/04/05 11:02:54;;;;;;;1.98;0.70;;;22.20;99.90;;;;;;4954580;28;20600;-62
2024/04/05 11:05:20;;;;;;;2.65;0.68;;;22.40;99.90;;;;;;4953898;28;20050;-61
2024/04/05 11:07:58;;;;;;;2.88;1.00;;;22.50;99.90;;;;;;4955691;28;20051;-62
2024/04/05 11:10:28;;;;;;;1.33;0.60;;;22.40;99.90;;;;;;4955158;28;20515;-61
2024/04/05 11:12:54;;;;;;;2.55;0.70;;;22.40;99.90;;;;;;4954662;28;20054;-61
2024/04/05 11:15:21;;;;;;;1.80;0.88;;;22.30;99.90;;;;;;4955297;28;20423;-61
2024/04/05 11:18:01;;;;;;;1.98;0.75;;;22.40;99.90;;;;;;4958359;28;20051;-61
2024/04/05 11:20:29;;;;;;;2.22;0.65;;;22.60;99.90;;;;;;4961788;28;20054;-61
2024/04/05 11:23:16;;;;;;;1.52;0.52;;;22.80;99.90;;;;;;4956068;28;20475;-62
2024/04/05 11:25:54;;;;;;;3.05;0.68;;;23.10;99.90;;;;;;4943055;28;20426;-62
2024/04/05 11:28:23;;;;;;;2.67;0.68;;;23.10;99.90;;;;;;4943070;28;20059;-62
2024/04/05 11:30:53;;;;;;;2.13;0.50;;;23.00;99.90;;;;;;4948975;28;20690;-61
2024/04/05 11:33:19;;;;;;;2.85;0.63;;;23.00;99.90;;;;;;4959487;28;20051;-61
2024/04/05 11:35:48;;;;;;;2.80;0.93;;;23.00;99.90;;;;;;4953997;28;20054;-61
2024/04/05 11:38:14;;;;;;;1.80;0.73;;;23.10;99.90;;;;;;4951181;28;20061;-61
2024/04/05 11:40:41;;;;;;;1.73;0.50;;;23.20;99.90;;;;;;4955307;28;20082;-61
2024/04/05 11:43:08;;;;;;;4.30;0.80;;;23.30;99.90;;;;;;4958453;28;20054;-62
2024/04/05 11:45:35;;;;;;;3.13;0.77;;;23.20;99.90;;;;;;4953478;28;20054;-62
2024/04/05 11:48:02;;;;;;;1.55;0.80;;;23.20;99.90;;;;;;4951420;28;20046;-62
2024/04/05 11:50:28;;;;;;;1.48;0.70;;;23.30;99.90;;;;;;4952731;28;20065;-62
2024/04/05 11:52:53;;;;;;;1.73;0.63;;;23.40;99.90;;;;;;4949765;28;20495;-62
2024/04/05 11:55:20;;;;;;;1.05;0.60;;;23.40;99.90;;;;;;4960798;28;20050;-63
2024/04/05 11:57:45;;;;;;;1.30;0.85;;;23.30;99.90;;;;;;4952781;28;20047;-64
2024/04/05 12:00:13;;;;;;;1.52;0.80;;;23.30;99.90;;;;;;4955601;28;20074;-62
2024/04/05 12:02:39;;;;;;;1.77;0.73;;;23.30;99.90;;;;;;4954931;28;20057;-62
2024/04/05 12:05:07;;;;;;;2.13;0.70;;;23.50;99.90;;;;;;4955718;28;20383;-62
2024/04/05 12:07:33;;;;;;;1.42;0.60;;;23.70;99.90;;;;;;4961449;28;20311;-62
2024/04/05 12:09:59;;;;;;;1.40;0.63;;;23.80;99.90;;;;;;4956822;28;20470;-63
2024/04/05 12:12:26;;;;;;;2.22;0.80;;;23.80;99.90;;;;;;4951235;28;20086;-63
2024/04/05 12:14:51;;;;;;;2.90;0.60;;;23.60;99.90;;;;;;4951165;28;20066;-62
2024/04/05 12:17:17;;;;;;;0.60;0.60;;;23.60;99.90;;;;;;4955953;28;20050;-62
2024/04/05 12:19:47;;;;;;;5.32;1.00;;;23.50;99.90;;;;;;4952747;28;20514;-62
2024/04/05 12:22:13;;;;;;;4.05;0.70;;;23.40;99.90;;;;;;4960854;28;20085;-63
2024/04/05 12:24:39;;;;;;;1.42;0.70;;;23.30;99.90;;;;;;4953471;28;20062;-63
2024/04/05 12:27:05;;;;;;;1.85;0.50;;;23.40;99.90;;;;;;4951344;28;20149;-63
2024/04/05 12:29:31;;;;;;;1.45;0.50;;;23.40;99.90;;;;;;4954070;28;20051;-62
2024/04/05 12:31:57;;;;;;;2.92;0.50;;;23.40;99.90;;;;;;4955640;28;20046;-61
2024/04/05 12:34:23;;;;;;;1.23;0.65;;;23.70;99.90;;;;;;4951471;28;20054;-62
2024/04/05 12:36:50;;;;;;;0.70;0.50;;;24.00;99.90;;;;;;4954752;28;20063;-63
2024/04/05 12:39:25;;;;;;;1.23;0.63;;;24.40;99.90;;;;;;4965279;28;20054;-63
2024/04/05 12:41:54;;;;;;;3.75;0.47;;;24.50;99.90;;;;;;4950595;28;20423;-61
2024/04/05 12:44:21;;;;;;;1.10;0.65;;;24.60;99.90;;;;;;4950282;28;20532;-62
2024/04/05 12:46:50;;;;;;;1.30;0.60;;;24.60;99.90;;;;;;4950365;28;20059;-63